Flight Track Log - Related Links

Times and Time Zones

All times are in EDT time to prevent confusion due to time zone crossing. See the UAE787 flight status page for this flight to view local times or setup timezone preferences in your user account.

Time Position Orientation Groundspeed Altitude Reporting Facility
EDT Latitude Longitude Course Direction KTS MPH feet Rate Location/Type
Thu 09:24:00 AM 5.5549 -0.8864 266° West  Level FlightAware Approximate
Thu 09:25:00 AM 5.5510 -0.9417 266° West  Level FlightAware Approximate
Thu 09:26:00 AM 5.5471 -0.9971 266° West  Level FlightAware Approximate
Thu 09:27:00 AM 5.5432 -1.0524 266° West  Level FlightAware Approximate
Thu 09:28:00 AM 5.5393 -1.1078 266° West  Level FlightAware Approximate
Thu 09:29:00 AM 5.5353 -1.1631 266° West  Level FlightAware Approximate
Thu 09:30:00 AM 5.5314 -1.2185 266° West  Level FlightAware Approximate
Thu 09:31:00 AM 5.5275 -1.2738 266° West  Level FlightAware Approximate
Thu 09:32:00 AM 5.5235 -1.3292 266° West  Level FlightAware Approximate
Thu 09:33:00 AM 5.5196 -1.3845 266° West  Level FlightAware Approximate
Thu 09:34:00 AM 5.5156 -1.4399 266° West  Level FlightAware Approximate
Thu 09:35:00 AM 5.5117 -1.4952 266° West  Level FlightAware Approximate
Thu 09:36:00 AM 5.5077 -1.5505 266° West  Level FlightAware Approximate
Thu 09:37:00 AM 5.5037 -1.6059 266° West  Level FlightAware Approximate
Thu 09:38:00 AM 5.4998 -1.6612 266° West  Level FlightAware Approximate
Thu 09:39:00 AM 5.4958 -1.7166 266° West  Level FlightAware Approximate
Thu 09:40:00 AM 5.4918 -1.7719 266° West  Level FlightAware Approximate
Thu 09:41:00 AM 5.4878 -1.8273 266° West  Level FlightAware Approximate
Thu 09:42:00 AM 5.4838 -1.8826 266° West  Level FlightAware Approximate
Thu 09:43:00 AM 5.4798 -1.9379 266° West  Level FlightAware Approximate
Thu 09:44:00 AM 5.4758 -1.9933 266° West  Level FlightAware Approximate
Thu 09:45:00 AM 5.4718 -2.0486 266° West  Level FlightAware Approximate
Thu 09:46:00 AM 5.4678 -2.1039 266° West  Level FlightAware Approximate
Thu 09:47:00 AM 5.4638 -2.1593 266° West  Level FlightAware Approximate
Thu 09:48:00 AM 5.4598 -2.2146 266° West  Level FlightAware Approximate
Thu 09:49:00 AM 5.4558 -2.2699 266° West  Level FlightAware Approximate
Thu 09:50:00 AM 5.4517 -2.3253 266° West  Level FlightAware Approximate
Thu 09:51:00 AM 5.4477 -2.3806 266° West  Level FlightAware Approximate
Thu 09:52:00 AM 5.4436 -2.4359 266° West  Level FlightAware Approximate
Thu 09:53:00 AM 5.4396 -2.4913 266° West  Level FlightAware Approximate
Thu 09:54:00 AM 5.4356 -2.5466 266° West  Level FlightAware Approximate
Thu 09:55:00 AM 5.4315 -2.6019 266° West  Level FlightAware Approximate
Thu 09:56:00 AM 5.4274 -2.6572 266° West  Level FlightAware Approximate
Thu 09:57:00 AM 5.4234 -2.7126 266° West  Level FlightAware Approximate
Thu 09:58:00 AM 5.4193 -2.7679 266° West  Level FlightAware Approximate
Thu 09:59:00 AM 5.4152 -2.8232 266° West  Level FlightAware Approximate
Thu 10:00:00 AM 5.4111 -2.8785 266° West  Level FlightAware Approximate
Thu 10:01:00 AM 5.4083 -2.9167 265° West  Level FlightAware Approximate
Thu 10:02:00 AM 5.4004 -2.9716 265° West  Level Estimated
Thu 10:03:00 AM 5.4083 -2.9167 265° West  Level FlightAware Approximate
Thu 10:04:00 AM 5.4004 -2.9716 265° West  Level Estimated
Thu 10:05:00 AM 5.4083 -2.9167 265° West  Level FlightAware Approximate
Thu 10:06:00 AM 5.4004 -2.9716 265° West  Level Estimated
Thu 10:07:00 AM 5.4083 -2.9167 265° West  Level FlightAware Approximate
Thu 10:08:00 AM 5.4004 -2.9716 265° West  Level Estimated
Thu 10:09:00 AM 5.4083 -2.9167 265° West  Level FlightAware Approximate
Thu 10:10:00 AM 5.4004 -2.9716 265° West  Level Estimated
Thu 10:11:00 AM 5.4083 -2.9167 265° West  Level FlightAware Approximate
Thu 10:12:00 AM 5.4004 -2.9716 265° West  Level Estimated
Thu 10:13:00 AM 5.4083 -2.9167 265° West  Level FlightAware Approximate
Thu 10:14:00 AM 5.4004 -2.9716 265° West  Level Estimated
Thu 10:15:00 AM 5.4083 -2.9167 265° West  Level FlightAware Approximate
Thu 10:16:00 AM 5.4004 -2.9716 265° West  Level Estimated
Thu 10:17:00 AM 5.4083 -2.9167 265° West  Level FlightAware Approximate

Login

Don't have an account? Register now (free) for customized features, flight alerts, and more!